PWSweather.com
Personal Weather Stations
Station Observations
SHAHALMS1
Eftra, Falkenberg, HA

EftraFalkenberg, HA

Lat: 56.85, Lon: 12.65

Elevation: 140

Station Type:

http://hem.passagen.se/risarp101

High Low Average
Temperature 64.8°F18.2°C 58.5°F14.7°C 61.0°F16.1°C
Dew Point 58.0°F14.4°C 51.4°F10.8°C 54.4°F12.4°C
Winds 14.4 mph 23.2 kmh Calm Calm 5.0 mph SW8.0 kmh SW
Wind Gusts 23.3 mph37.5 kmh -- 11.0 mph17.7 kmh
Humidity 90% 67% 79%
Pressure 29.95 in1014.2 mb 29.83 in1010.2 mb -
Precipitation 0.00 in0.0 mm - -
Hour Temp Dew Point Humidity Winds Wind Gusts Pressure Precip Precip Rate Daily Precip Total
12:00 AM 60.1°F15.6°C 55.2°F12.9°C 84% 8.1 mph S13.0 kmh S 19.0 mph30.6 kmh 29.86 in1011.2 mb 0.00 in0.0 mm 0.00 in0.0 mm 0.00 in0.0 mm
12:15 AM 59.7°F15.4°C 55.2°F12.9°C 85% 14.4 mph SSW23.2 kmh SSW 20.0 mph32.2 kmh 29.86 in1011.2 mb 0.00 in0.0 mm 0.00 in0.0 mm 0.00 in0.0 mm
12:30 AM 59.4°F15.2°C 55.2°F12.9°C 86% 8.4 mph SW13.5 kmh SW 22.9 mph36.9 kmh 29.83 in1010.2 mb 0.00 in0.0 mm 0.00 in0.0 mm 0.00 in0.0 mm
12:45 AM 59.4°F15.2°C 55.8°F13.2°C 88% 11.0 mph S17.7 kmh S 23.3 mph37.5 kmh 29.83 in1010.2 mb 0.00 in0.0 mm 0.00 in0.0 mm 0.00 in0.0 mm
01:00 AM 59.4°F15.2°C 55.8°F13.2°C 88% 9.8 mph SW15.8 kmh SW 16.1 mph25.9 kmh 29.83 in1010.2 mb 0.00 in0.0 mm 0.00 in0.0 mm 0.00 in0.0 mm
01:15 AM 59.5°F15.3°C 56.3°F13.5°C 89% 8.6 mph W13.8 kmh W 17.2 mph27.7 kmh 29.83 in1010.2 mb 0.00 in0.0 mm 0.00 in0.0 mm 0.00 in0.0 mm
01:30 AM 59.7°F15.4°C 56.5°F13.6°C 89% 9.9 mph WSW15.9 kmh WSW 20.0 mph32.2 kmh 29.83 in1010.2 mb 0.00 in0.0 mm 0.00 in0.0 mm 0.00 in0.0 mm
01:45 AM 59.9°F15.5°C 56.6°F13.7°C 89% 9.9 mph WSW15.9 kmh WSW 19.3 mph31.1 kmh 29.83 in1010.2 mb 0.00 in0.0 mm 0.00 in0.0 mm 0.00 in0.0 mm
02:00 AM 60.1°F15.6°C 56.5°F13.6°C 88% 8.2 mph W13.2 kmh W 15.0 mph24.1 kmh 29.83 in1010.2 mb 0.00 in0.0 mm 0.00 in0.0 mm 0.00 in0.0 mm
02:15 AM 60.1°F15.6°C 56.5°F13.6°C 88% 7.6 mph W12.2 kmh W 15.7 mph25.3 kmh 29.83 in1010.2 mb 0.00 in0.0 mm 0.00 in0.0 mm 0.00 in0.0 mm
02:30 AM 60.1°F15.6°C 56.5°F13.6°C 88% 7.4 mph WSW11.9 kmh WSW 13.6 mph21.9 kmh 29.83 in1010.2 mb 0.00 in0.0 mm 0.00 in0.0 mm 0.00 in0.0 mm
02:45 AM 60.1°F15.6°C 56.5°F13.6°C 88% 7.9 mph WSW12.7 kmh WSW 16.1 mph25.9 kmh 29.83 in1010.2 mb 0.00 in0.0 mm 0.00 in0.0 mm 0.00 in0.0 mm
03:00 AM 60.1°F15.6°C 56.8°F13.8°C 89% 8.3 mph W13.4 kmh W 19.7 mph31.7 kmh 29.83 in1010.2 mb 0.00 in0.0 mm 0.00 in0.0 mm 0.00 in0.0 mm
03:15 AM 60.1°F15.6°C 56.8°F13.8°C 89% 7.8 mph WSW12.6 kmh WSW 15.0 mph24.1 kmh 29.83 in1010.2 mb 0.00 in0.0 mm 0.00 in0.0 mm 0.00 in0.0 mm
03:30 AM 60.1°F15.6°C 56.8°F13.8°C 89% 6.9 mph W11.1 kmh W 14.0 mph22.5 kmh 29.83 in1010.2 mb 0.00 in0.0 mm 0.00 in0.0 mm 0.00 in0.0 mm
03:45 AM 60.1°F15.6°C 56.8°F13.8°C 89% 6.1 mph W9.8 kmh W 12.9 mph20.8 kmh 29.83 in1010.2 mb 0.00 in0.0 mm 0.00 in0.0 mm 0.00 in0.0 mm
04:00 AM 60.1°F15.6°C 56.8°F13.8°C 89% 5.4 mph W8.7 kmh W 12.2 mph19.6 kmh 29.83 in1010.2 mb 0.00 in0.0 mm 0.00 in0.0 mm 0.00 in0.0 mm
04:15 AM 59.9°F15.5°C 56.6°F13.7°C 89% 4.9 mph W7.9 kmh W 10.0 mph16.1 kmh 29.83 in1010.2 mb 0.00 in0.0 mm 0.00 in0.0 mm 0.00 in0.0 mm
04:30 AM 59.7°F15.4°C 56.8°F13.8°C 90% 4.4 mph W7.1 kmh W 8.9 mph14.3 kmh 29.83 in1010.2 mb 0.00 in0.0 mm 0.00 in0.0 mm 0.00 in0.0 mm
04:45 AM 59.5°F15.3°C 56.3°F13.5°C 89% 5.4 mph W8.7 kmh W 12.5 mph20.1 kmh 29.83 in1010.2 mb 0.00 in0.0 mm 0.00 in0.0 mm 0.00 in0.0 mm
05:00 AM 59.7°F15.4°C 56.5°F13.6°C 89% 4.3 mph W6.9 kmh W 9.3 mph15.0 kmh 29.86 in1011.2 mb 0.00 in0.0 mm 0.00 in0.0 mm 0.00 in0.0 mm
05:15 AM 59.5°F15.3°C 56.3°F13.5°C 89% 4.8 mph W7.7 kmh W 16.1 mph25.9 kmh 29.83 in1010.2 mb 0.00 in0.0 mm 0.00 in0.0 mm 0.00 in0.0 mm
05:30 AM 59.5°F15.3°C 56.3°F13.5°C 89% 4.4 mph W7.1 kmh W 7.9 mph12.7 kmh 29.83 in1010.2 mb 0.00 in0.0 mm 0.00 in0.0 mm 0.00 in0.0 mm
05:45 AM 59.5°F15.3°C 56.3°F13.5°C 89% 4.6 mph W7.4 kmh W 10.4 mph16.7 kmh 29.83 in1010.2 mb 0.00 in0.0 mm 0.00 in0.0 mm 0.00 in0.0 mm
06:00 AM 59.5°F15.3°C 56.0°F13.3°C 88% 5.0 mph WNW8.0 kmh WNW 10.0 mph16.1 kmh 29.86 in1011.2 mb 0.00 in0.0 mm 0.00 in0.0 mm 0.00 in0.0 mm
06:15 AM 59.7°F15.4°C 56.2°F13.4°C 88% 4.7 mph W7.6 kmh W 13.6 mph21.9 kmh 29.86 in1011.2 mb 0.00 in0.0 mm 0.00 in0.0 mm 0.00 in0.0 mm
06:30 AM 59.9°F15.5°C 56.0°F13.3°C 87% 5.7 mph W9.2 kmh W 10.7 mph17.2 kmh 29.86 in1011.2 mb 0.00 in0.0 mm 0.00 in0.0 mm 0.00 in0.0 mm
06:45 AM 59.9°F15.5°C 56.0°F13.3°C 87% 4.0 mph W6.4 kmh W 7.9 mph12.7 kmh 29.89 in1012.2 mb 0.00 in0.0 mm 0.00 in0.0 mm 0.00 in0.0 mm
07:00 AM 60.3°F15.7°C 56.4°F13.6°C 87% 5.0 mph W8.0 kmh W 12.5 mph20.1 kmh 29.86 in1011.2 mb 0.00 in0.0 mm 0.00 in0.0 mm 0.00 in0.0 mm
07:15 AM 60.6°F15.9°C 56.4°F13.6°C 86% 4.9 mph W7.9 kmh W 8.6 mph13.8 kmh 29.86 in1011.2 mb 0.00 in0.0 mm 0.00 in0.0 mm 0.00 in0.0 mm
07:30 AM 61.2°F16.2°C 56.9°F13.8°C 86% 5.1 mph WSW8.2 kmh WSW 9.3 mph15.0 kmh 29.83 in1010.2 mb 0.00 in0.0 mm 0.00 in0.0 mm 0.00 in0.0 mm
07:45 AM 61.2°F16.2°C 56.0°F13.3°C 83% 7.2 mph W11.6 kmh W 21.8 mph35.1 kmh 29.86 in1011.2 mb 0.00 in0.0 mm 0.00 in0.0 mm 0.00 in0.0 mm
08:00 AM 61.3°F16.3°C 55.8°F13.2°C 82% 4.4 mph W7.1 kmh W 11.1 mph17.9 kmh 29.86 in1011.2 mb 0.00 in0.0 mm 0.00 in0.0 mm 0.00 in0.0 mm
08:15 AM 61.5°F16.4°C 55.3°F12.9°C 80% 5.4 mph W8.7 kmh W 11.8 mph19.0 kmh 29.89 in1012.2 mb 0.00 in0.0 mm 0.00 in0.0 mm 0.00 in0.0 mm
08:30 AM 61.9°F16.6°C 54.9°F12.7°C 78% 5.6 mph W9.0 kmh W 13.6 mph21.9 kmh 29.89 in1012.2 mb 0.00 in0.0 mm 0.00 in0.0 mm 0.00 in0.0 mm
08:45 AM 62.4°F16.9°C 55.1°F12.8°C 77% 5.4 mph W8.7 kmh W 15.7 mph25.3 kmh 29.89 in1012.2 mb 0.00 in0.0 mm 0.00 in0.0 mm 0.00 in0.0 mm
09:00 AM 62.2°F16.8°C 54.2°F12.3°C 75% 6.8 mph W10.9 kmh W 19.0 mph30.6 kmh 29.89 in1012.2 mb 0.00 in0.0 mm 0.00 in0.0 mm 0.00 in0.0 mm
09:15 AM 62.4°F16.9°C 54.4°F12.4°C 75% 5.7 mph W9.2 kmh W 17.5 mph28.2 kmh 29.92 in1013.2 mb 0.00 in0.0 mm 0.00 in0.0 mm 0.00 in0.0 mm
09:30 AM 62.8°F17.1°C 53.6°F12.0°C 72% 5.4 mph WNW8.7 kmh WNW 12.2 mph19.6 kmh 29.89 in1012.2 mb 0.00 in0.0 mm 0.00 in0.0 mm 0.00 in0.0 mm
09:45 AM 62.8°F17.1°C 53.2°F11.8°C 71% 6.0 mph W9.7 kmh W 18.3 mph29.5 kmh 29.92 in1013.2 mb 0.00 in0.0 mm 0.00 in0.0 mm 0.00 in0.0 mm
10:00 AM 62.8°F17.1°C 52.8°F11.6°C 70% 5.5 mph WNW8.9 kmh WNW 16.8 mph27.0 kmh 29.92 in1013.2 mb 0.00 in0.0 mm 0.00 in0.0 mm 0.00 in0.0 mm
10:15 AM 63.1°F17.3°C 53.6°F12.0°C 71% 4.6 mph W7.4 kmh W 12.9 mph20.8 kmh 29.92 in1013.2 mb 0.00 in0.0 mm 0.00 in0.0 mm 0.00 in0.0 mm
10:30 AM 63.5°F17.5°C 53.9°F12.2°C 71% 4.7 mph W7.6 kmh W 9.3 mph15.0 kmh 29.92 in1013.2 mb 0.00 in0.0 mm 0.00 in0.0 mm 0.00 in0.0 mm
10:45 AM 63.1°F17.3°C 52.8°F11.6°C 69% 5.0 mph WNW8.0 kmh WNW 10.4 mph16.7 kmh 29.92 in1013.2 mb 0.00 in0.0 mm 0.00 in0.0 mm 0.00 in0.0 mm
11:00 AM 63.1°F17.3°C 52.8°F11.6°C 69% 5.6 mph W9.0 kmh W 13.6 mph21.9 kmh 29.89 in1012.2 mb 0.00 in0.0 mm 0.00 in0.0 mm 0.00 in0.0 mm
11:15 AM 63.3°F17.4°C 53.4°F11.9°C 70% 3.8 mph W6.1 kmh W 13.6 mph21.9 kmh 29.89 in1012.2 mb 0.00 in0.0 mm 0.00 in0.0 mm 0.00 in0.0 mm
11:30 AM 63.3°F17.4°C 53.0°F11.7°C 69% 5.3 mph W8.5 kmh W 12.2 mph19.6 kmh 29.92 in1013.2 mb 0.00 in0.0 mm 0.00 in0.0 mm 0.00 in0.0 mm
11:45 AM 63.9°F17.7°C 53.1°F11.7°C 68% 4.5 mph W7.2 kmh W 9.3 mph15.0 kmh 29.89 in1012.2 mb 0.00 in0.0 mm 0.00 in0.0 mm 0.00 in0.0 mm
12:00 PM 63.5°F17.5°C 52.3°F11.3°C 67% 4.2 mph WNW6.8 kmh WNW 10.4 mph16.7 kmh 29.92 in1013.2 mb 0.00 in0.0 mm 0.00 in0.0 mm 0.00 in0.0 mm
12:15 PM 63.5°F17.5°C 52.3°F11.3°C 67% 5.1 mph WNW8.2 kmh WNW 13.6 mph21.9 kmh 29.92 in1013.2 mb 0.00 in0.0 mm 0.00 in0.0 mm 0.00 in0.0 mm
12:30 PM 63.7°F17.6°C 52.9°F11.6°C 68% 4.3 mph WNW6.9 kmh WNW 12.9 mph20.8 kmh 29.92 in1013.2 mb 0.00 in0.0 mm 0.00 in0.0 mm 0.00 in0.0 mm
12:45 PM 63.9°F17.7°C 53.1°F11.7°C 68% 3.9 mph W6.3 kmh W 11.8 mph19.0 kmh 29.92 in1013.2 mb 0.00 in0.0 mm 0.00 in0.0 mm 0.00 in0.0 mm
01:00 PM 64.2°F17.9°C 53.0°F11.7°C 67% 3.3 mph W5.3 kmh W 13.6 mph21.9 kmh 29.95 in1014.2 mb 0.00 in0.0 mm 0.00 in0.0 mm 0.00 in0.0 mm
01:15 PM 64.2°F17.9°C 53.0°F11.7°C 67% 4.6 mph W7.4 kmh W 10.0 mph16.1 kmh 29.95 in1014.2 mb 0.00 in0.0 mm 0.00 in0.0 mm 0.00 in0.0 mm
01:30 PM 64.2°F17.9°C 53.4°F11.9°C 68% 4.0 mph W6.4 kmh W 9.7 mph15.6 kmh 29.95 in1014.2 mb 0.00 in0.0 mm 0.00 in0.0 mm 0.00 in0.0 mm
01:45 PM 64.4°F18.0°C 53.2°F11.8°C 67% 3.0 mph W4.8 kmh W 8.6 mph13.8 kmh 29.95 in1014.2 mb 0.00 in0.0 mm 0.00 in0.0 mm 0.00 in0.0 mm
02:00 PM 64.4°F18.0°C 53.2°F11.8°C 67% 3.4 mph W5.5 kmh W 8.6 mph13.8 kmh 29.95 in1014.2 mb 0.00 in0.0 mm 0.00 in0.0 mm 0.00 in0.0 mm
02:15 PM 64.6°F18.1°C 53.4°F11.9°C 67% 2.9 mph W4.7 kmh W 7.5 mph12.1 kmh 29.95 in1014.2 mb 0.00 in0.0 mm 0.00 in0.0 mm 0.00 in0.0 mm
02:30 PM 64.6°F18.1°C 53.4°F11.9°C 67% 3.1 mph W5.0 kmh W 10.0 mph16.1 kmh 29.95 in1014.2 mb 0.00 in0.0 mm 0.00 in0.0 mm 0.00 in0.0 mm
02:45 PM 64.8°F18.2°C 53.5°F11.9°C 67% 4.0 mph W6.4 kmh W 10.0 mph16.1 kmh 29.95 in1014.2 mb 0.00 in0.0 mm 0.00 in0.0 mm 0.00 in0.0 mm
03:00 PM 64.4°F18.0°C 53.2°F11.8°C 67% 2.7 mph W4.3 kmh W 9.7 mph15.6 kmh 29.92 in1013.2 mb 0.00 in0.0 mm 0.00 in0.0 mm 0.00 in0.0 mm
03:15 PM 63.7°F17.6°C 52.5°F11.4°C 67% 2.6 mph WSW4.2 kmh WSW 8.6 mph13.8 kmh 29.95 in1014.2 mb 0.00 in0.0 mm 0.00 in0.0 mm 0.00 in0.0 mm
03:30 PM 63.1°F17.3°C 52.0°F11.1°C 67% 2.9 mph W4.7 kmh W 8.6 mph13.8 kmh 29.92 in1013.2 mb 0.00 in0.0 mm 0.00 in0.0 mm 0.00 in0.0 mm
03:45 PM 62.6°F17.0°C 51.5°F10.8°C 67% 1.5 mph W2.4 kmh W 5.4 mph8.7 kmh 29.95 in1014.2 mb 0.00 in0.0 mm 0.00 in0.0 mm 0.00 in0.0 mm
04:00 PM 62.2°F16.8°C 51.5°F10.8°C 68% 2.5 mph WNW4.0 kmh WNW 6.1 mph9.8 kmh 29.92 in1013.2 mb 0.00 in0.0 mm 0.00 in0.0 mm 0.00 in0.0 mm
04:15 PM 62.1°F16.7°C 51.8°F11.0°C 69% 1.4 mph W2.3 kmh W 5.0 mph8.0 kmh 29.92 in1013.2 mb 0.00 in0.0 mm 0.00 in0.0 mm 0.00 in0.0 mm
04:30 PM 61.9°F16.6°C 51.6°F10.9°C 69% 0.1 mph NW0.2 kmh NW 1.4 mph2.3 kmh 29.92 in1013.2 mb 0.00 in0.0 mm 0.00 in0.0 mm 0.00 in0.0 mm
04:45 PM 61.7°F16.5°C 51.4°F10.8°C 69% 0.3 mph S0.5 kmh S 3.2 mph5.1 kmh 29.92 in1013.2 mb 0.00 in0.0 mm 0.00 in0.0 mm 0.00 in0.0 mm
05:00 PM 61.2°F16.2°C 51.7°F10.9°C 71% Calm Calm 1.4 mph2.3 kmh 29.92 in1013.2 mb 0.00 in0.0 mm 0.00 in0.0 mm 0.00 in0.0 mm
05:15 PM 60.8°F16.0°C 52.1°F11.2°C 73% Calm Calm 1.4 mph2.3 kmh 29.89 in1012.2 mb 0.00 in0.0 mm 0.00 in0.0 mm 0.00 in0.0 mm
05:30 PM 60.4°F15.8°C 52.1°F11.2°C 74% Calm Calm -- 29.89 in1012.2 mb 0.00 in0.0 mm 0.00 in0.0 mm 0.00 in0.0 mm
05:45 PM 60.1°F15.6°C 52.5°F11.4°C 76% Calm Calm -- 29.89 in1012.2 mb 0.00 in0.0 mm 0.00 in0.0 mm 0.00 in0.0 mm
06:00 PM 59.9°F15.5°C 52.7°F11.5°C 77% Calm Calm -- 29.92 in1013.2 mb 0.00 in0.0 mm 0.00 in0.0 mm 0.00 in0.0 mm
06:15 PM 59.4°F15.2°C 52.5°F11.4°C 78% 0.1 mph ESE0.2 kmh ESE 3.2 mph5.1 kmh 29.89 in1012.2 mb 0.00 in0.0 mm 0.00 in0.0 mm 0.00 in0.0 mm
06:30 PM 59.0°F15.0°C 52.1°F11.2°C 78% 0.1 mph S0.2 kmh S 2.5 mph4.0 kmh 29.89 in1012.2 mb 0.00 in0.0 mm 0.00 in0.0 mm 0.00 in0.0 mm
06:45 PM 59.0°F15.0°C 52.1°F11.2°C 78% 0.7 mph SE1.1 kmh SE 5.7 mph9.2 kmh 29.89 in1012.2 mb 0.00 in0.0 mm 0.00 in0.0 mm 0.00 in0.0 mm
07:00 PM 58.6°F14.8°C 52.1°F11.2°C 79% 3.0 mph SE4.8 kmh SE 6.8 mph10.9 kmh 29.89 in1012.2 mb 0.00 in0.0 mm 0.00 in0.0 mm 0.00 in0.0 mm
07:15 PM 58.5°F14.7°C 52.0°F11.1°C 79% 0.9 mph SE1.4 kmh SE 6.8 mph10.9 kmh 29.92 in1013.2 mb 0.00 in0.0 mm 0.00 in0.0 mm 0.00 in0.0 mm
07:30 PM 58.5°F14.7°C 52.3°F11.3°C 80% 2.9 mph SE4.7 kmh SE 6.8 mph10.9 kmh 29.92 in1013.2 mb 0.00 in0.0 mm 0.00 in0.0 mm 0.00 in0.0 mm
07:45 PM 58.6°F14.8°C 52.5°F11.4°C 80% 6.2 mph SE10.0 kmh SE 10.4 mph16.7 kmh 29.92 in1013.2 mb 0.00 in0.0 mm 0.00 in0.0 mm 0.00 in0.0 mm
08:00 PM 58.8°F14.9°C 52.7°F11.5°C 80% 4.9 mph ESE7.9 kmh ESE 9.7 mph15.6 kmh 29.92 in1013.2 mb 0.00 in0.0 mm 0.00 in0.0 mm 0.00 in0.0 mm
08:15 PM 59.0°F15.0°C 53.2°F11.8°C 81% 6.2 mph ESE10.0 kmh ESE 11.5 mph18.5 kmh 29.92 in1013.2 mb 0.00 in0.0 mm 0.00 in0.0 mm 0.00 in0.0 mm
08:30 PM 59.0°F15.0°C 53.2°F11.8°C 81% 6.0 mph SE9.7 kmh SE 10.4 mph16.7 kmh 29.92 in1013.2 mb 0.00 in0.0 mm 0.00 in0.0 mm 0.00 in0.0 mm
08:45 PM 59.0°F15.0°C 53.2°F11.8°C 81% 6.1 mph SE9.8 kmh SE 12.2 mph19.6 kmh 29.92 in1013.2 mb 0.00 in0.0 mm 0.00 in0.0 mm 0.00 in0.0 mm
09:00 PM 58.8°F14.9°C 53.3°F11.8°C 82% 5.0 mph SE8.0 kmh SE 10.0 mph16.1 kmh 29.92 in1013.2 mb 0.00 in0.0 mm 0.00 in0.0 mm 0.00 in0.0 mm
09:15 PM 58.8°F14.9°C 53.7°F12.1°C 83% 5.4 mph SE8.7 kmh SE 15.4 mph24.8 kmh 29.92 in1013.2 mb 0.00 in0.0 mm 0.00 in0.0 mm 0.00 in0.0 mm
09:30 PM 59.0°F15.0°C 54.2°F12.3°C 84% 5.6 mph SSE9.0 kmh SSE 13.6 mph21.9 kmh 29.92 in1013.2 mb 0.00 in0.0 mm 0.00 in0.0 mm 0.00 in0.0 mm
09:45 PM 59.0°F15.0°C 54.5°F12.5°C 85% 5.6 mph S9.0 kmh S 14.0 mph22.5 kmh 29.92 in1013.2 mb 0.00 in0.0 mm 0.00 in0.0 mm 0.00 in0.0 mm
10:00 PM 59.2°F15.1°C 55.0°F12.8°C 86% 5.9 mph S9.5 kmh S 13.6 mph21.9 kmh 29.92 in1013.2 mb 0.00 in0.0 mm 0.00 in0.0 mm 0.00 in0.0 mm
10:15 PM 59.2°F15.1°C 55.3°F12.9°C 87% 4.6 mph S7.4 kmh S 13.6 mph21.9 kmh 29.92 in1013.2 mb 0.00 in0.0 mm 0.00 in0.0 mm 0.00 in0.0 mm
10:30 PM 59.2°F15.1°C 55.3°F12.9°C 87% 4.5 mph S7.2 kmh S 12.5 mph20.1 kmh 29.92 in1013.2 mb 0.00 in0.0 mm 0.00 in0.0 mm 0.00 in0.0 mm
10:45 PM 59.5°F15.3°C 56.0°F13.3°C 88% 3.3 mph S5.3 kmh S 8.6 mph13.8 kmh 29.92 in1013.2 mb 0.00 in0.0 mm 0.00 in0.0 mm 0.00 in0.0 mm
11:00 PM 60.1°F15.6°C 56.8°F13.8°C 89% 4.1 mph S6.6 kmh S 10.0 mph16.1 kmh 29.92 in1013.2 mb 0.00 in0.0 mm 0.00 in0.0 mm 0.00 in0.0 mm
11:15 PM 60.6°F15.9°C 57.4°F14.1°C 89% 5.1 mph S8.2 kmh S 10.0 mph16.1 kmh 29.89 in1012.2 mb 0.00 in0.0 mm 0.00 in0.0 mm 0.00 in0.0 mm
11:30 PM 61.0°F16.1°C 58.0°F14.4°C 90% 6.3 mph S10.1 kmh S 15.4 mph24.8 kmh 29.89 in1012.2 mb 0.00 in0.0 mm 0.00 in0.0 mm 0.00 in0.0 mm
11:45 PM 61.0°F16.1°C 58.0°F14.4°C 90% 6.3 mph S10.1 kmh S 17.5 mph28.2 kmh 29.92 in1013.2 mb 0.00 in0.0 mm 0.00 in0.0 mm 0.00 in0.0 mm